Odanah, Wisconsin
Current Conditions -  °F | °C
As of 8:53 PM on Wednesday 22 Oct 2014 (Local Time) from KASX Reporting Station
Broken Clouds Broken Clouds  
Wind Chill: 53°   Ceiling: 9000
Heat Index: 53°   Visibility: 10mi
Dew Point: 32°   Wind: 8mph
Humidity: 45%   Direction: 180°S
Pressure: 30.09"   Gusts: NA
Location:  46.61°N, 90.7°W
Report Text: KASX 230153Z AUTO 18007KT 10SM SCT075 BKN090 12/00 A3009 RMK AO2 SLP195 T01170000
Loading
Personal Weather Stations






























Interactive Weather Map
Tropical Storm Tracking
New forecast layout! Learn more

10-Day Weather Forecast

Advertisements
Track Severe Weather on mobile